Buntingford, United Kingdom
Current Conditions -  °F | °C
As of 5:20 PM on Thursday 30 Oct 2014 (Local Time) from EGSS Reporting Station
Few Clouds Few Clouds  
Wind Chill: 59°   Ceiling: Unl
Heat Index: 59°   Visibility: 4mi
Dew Point: 57°   Wind: 6mph
Humidity: 94%   Direction: 150°SSE
Pressure: 30.09"   Gusts: NA
Location:  51.95°N, 0.02°W
Report Text: EGSS 301720Z 15005KT 130V190 7000 FEW017 15/14 Q1019
Loading
Personal Weather Stations






























Interactive Weather Map
Tropical Storm Tracking
New forecast layout! Learn more

10-Day Weather Forecast

Advertisements
Track Severe Weather on mobile